Time;durP1;ratioP1;P1;durP2;ratioP2;P2;SDS_P1;SDS_P2;PMS_P1;PMS_P2;Temp;Humidity;BMP_temperature;BMP_pressure;BME280_temperature;BME280_humidity;BME280_pressure;Samples;Min_cycle;Max_cycle;Signal;HPM_P1;HPM_P2
2023/12/15 00:02:05;;;;;;;29.02;13.13;;;6.20;99.90;;;;;;5112237;28;20165;-54
2023/12/15 00:04:30;;;;;;;22.27;11.85;;;6.20;99.90;;;;;;5099905;28;20542;-53
2023/12/15 00:06:56;;;;;;;27.73;11.93;;;6.10;99.90;;;;;;5090921;28;20208;-54
2023/12/15 00:09:23;;;;;;;31.65;13.32;;;6.20;99.90;;;;;;5091443;28;20176;-53
2023/12/15 00:11:49;;;;;;;25.88;12.57;;;6.20;99.90;;;;;;5091305;28;20637;-54
2023/12/15 00:14:14;;;;;;;25.98;13.15;;;6.10;99.90;;;;;;5091865;28;20240;-53
2023/12/15 00:16:40;;;;;;;20.55;11.95;;;6.10;99.90;;;;;;5091794;28;20169;-53
2023/12/15 00:19:05;;;;;;;25.98;13.05;;;6.20;99.90;;;;;;5091336;28;20172;-54
2023/12/15 00:21:31;;;;;;;21.63;11.85;;;6.30;99.90;;;;;;5091419;28;20176;-53
2023/12/15 00:23:56;;;;;;;21.52;10.75;;;6.20;99.90;;;;;;5091392;28;20166;-54
2023/12/15 00:26:22;;;;;;;22.30;10.40;;;6.30;99.90;;;;;;5091425;28;20173;-54
2023/12/15 00:28:47;;;;;;;20.50;11.32;;;6.10;99.90;;;;;;5091317;28;20173;-53
2023/12/15 00:31:13;;;;;;;19.30;10.85;;;6.10;99.90;;;;;;5091754;28;20174;-53
2023/12/15 00:33:39;;;;;;;19.52;11.27;;;6.30;99.90;;;;;;5091583;28;20180;-53
2023/12/15 00:36:05;;;;;;;19.60;11.32;;;6.20;99.90;;;;;;5091222;28;20169;-53
2023/12/15 00:38:31;;;;;;;21.30;10.93;;;6.20;99.90;;;;;;5073153;28;20166;-53
2023/12/15 00:40:56;;;;;;;20.65;11.25;;;6.20;99.90;;;;;;5091523;28;20176;-54
2023/12/15 00:43:22;;;;;;;19.67;10.50;;;6.30;99.90;;;;;;5091194;28;20176;-53
2023/12/15 00:45:47;;;;;;;23.33;11.75;;;6.30;99.90;;;;;;5091145;28;20177;-53
2023/12/15 00:48:13;;;;;;;16.27;9.18;;;6.20;99.90;;;;;;5091622;28;20211;-54
2023/12/15 00:50:38;;;;;;;18.80;10.48;;;6.30;99.90;;;;;;5091047;28;20211;-53
2023/12/15 00:53:04;;;;;;;22.40;10.43;;;6.10;99.90;;;;;;5090900;28;20217;-54
2023/12/15 00:55:29;;;;;;;27.15;11.13;;;6.20;99.90;;;;;;5091064;28;20266;-53
2023/12/15 00:57:55;;;;;;;17.80;9.73;;;6.20;99.90;;;;;;5091038;28;20177;-53
2023/12/15 01:00:20;;;;;;;26.83;11.93;;;6.30;99.90;;;;;;5091396;28;20181;-52
2023/12/15 01:02:46;;;;;;;20.42;11.85;;;6.20;99.90;;;;;;5090964;28;20179;-52
2023/12/15 01:05:11;;;;;;;19.45;11.30;;;6.30;99.90;;;;;;5110910;28;20173;-53
2023/12/15 01:07:37;;;;;;;26.90;11.45;;;6.20;99.90;;;;;;5111144;28;20169;-53
2023/12/15 01:10:03;;;;;;;19.65;10.57;;;6.20;99.90;;;;;;5111043;28;20160;-53
2023/12/15 01:12:28;;;;;;;18.95;11.70;;;6.20;99.90;;;;;;5110956;28;20177;-53
2023/12/15 01:14:54;;;;;;;16.50;10.50;;;6.30;99.90;;;;;;5111262;28;20253;-53
2023/12/15 01:17:20;;;;;;;23.35;10.75;;;6.10;99.90;;;;;;5111543;28;20164;-53
2023/12/15 01:19:45;;;;;;;18.00;10.48;;;6.20;99.90;;;;;;5114495;28;20173;-53
2023/12/15 01:22:11;;;;;;;21.65;11.20;;;6.30;99.90;;;;;;5115253;28;20165;-53
2023/12/15 01:24:36;;;;;;;18.60;10.88;;;6.30;99.90;;;;;;5114846;28;20168;-53
2023/12/15 01:27:02;;;;;;;19.38;10.63;;;6.20;99.90;;;;;;5115056;28;20165;-53
2023/12/15 01:29:27;;;;;;;20.70;12.38;;;6.20;99.90;;;;;;5096514;28;20620;-53
2023/12/15 01:31:53;;;;;;;21.45;11.27;;;6.20;99.90;;;;;;5114697;28;20161;-53
2023/12/15 01:34:18;;;;;;;20.65;10.77;;;6.30;99.90;;;;;;5103178;28;20243;-52
2023/12/15 01:36:44;;;;;;;21.60;11.35;;;6.20;99.90;;;;;;5094672;28;20200;-52
2023/12/15 01:39:09;;;;;;;22.75;10.07;;;5.30;99.90;;;;;;5094665;28;20161;-52
2023/12/15 01:41:35;;;;;;;21.02;11.00;;;6.30;99.90;;;;;;5094138;28;20528;-52
2023/12/15 01:44:01;;;;;;;19.73;10.88;;;6.20;99.90;;;;;;5094022;28;20297;-52
2023/12/15 01:46:26;;;;;;;23.30;11.55;;;6.20;99.90;;;;;;5094011;28;20238;-52
2023/12/15 01:48:52;;;;;;;27.13;12.00;;;6.40;99.90;;;;;;5093935;28;20168;-52
2023/12/15 01:51:18;;;;;;;22.80;11.05;;;6.40;99.90;;;;;;5093726;28;20165;-52
2023/12/15 01:53:44;;;;;;;19.95;11.90;;;6.30;99.90;;;;;;5094280;28;20219;-52
2023/12/15 01:56:09;;;;;;;16.60;10.55;;;6.30;99.90;;;;;;5094065;28;20170;-53
2023/12/15 01:58:35;;;;;;;24.08;12.00;;;6.40;99.90;;;;;;5093798;28;20176;-52
2023/12/15 02:01:00;;;;;;;18.92;11.07;;;6.40;99.90;;;;;;5094013;28;20537;-52
2023/12/15 02:03:26;;;;;;;17.77;10.57;;;6.40;99.90;;;;;;5097519;28;20169;-52
2023/12/15 02:05:52;;;;;;;19.52;10.93;;;6.50;99.90;;;;;;5113801;28;20636;-53
2023/12/15 02:08:17;;;;;;;22.70;12.27;;;6.30;99.90;;;;;;5114030;28;20190;-52
2023/12/15 02:10:43;;;;;;;20.92;11.50;;;6.50;99.90;;;;;;5114386;28;20172;-52
2023/12/15 02:13:08;;;;;;;19.45;11.77;;;6.50;99.90;;;;;;5113892;28;20659;-52
2023/12/15 02:15:34;;;;;;;22.70;12.57;;;6.50;99.90;;;;;;5114053;28;20204;-53
2023/12/15 02:17:59;;;;;;;26.25;12.23;;;6.40;99.90;;;;;;5113760;28;20188;-52
2023/12/15 02:20:26;;;;;;;18.73;12.40;;;6.40;99.90;;;;;;5113728;28;20183;-51
2023/12/15 02:22:52;;;;;;;21.92;12.80;;;6.40;99.90;;;;;;5113736;28;20165;-51
2023/12/15 02:25:18;;;;;;;21.10;13.00;;;6.50;99.90;;;;;;5113656;28;20176;-51
2023/12/15 02:27:43;;;;;;;19.88;12.15;;;6.40;99.90;;;;;;5114293;28;20169;-51
2023/12/15 02:30:09;;;;;;;20.70;12.80;;;6.60;99.90;;;;;;5113086;28;20294;-51
2023/12/15 02:32:35;;;;;;;24.95;14.32;;;6.60;99.90;;;;;;5113452;28;20235;-51
2023/12/15 02:35:00;;;;;;;21.52;12.52;;;6.60;99.90;;;;;;5111622;28;20611;-51
2023/12/15 02:37:27;;;;;;;21.58;13.75;;;6.50;99.90;;;;;;5113450;28;20169;-51
2023/12/15 02:39:52;;;;;;;21.58;12.52;;;6.50;99.90;;;;;;5113375;28;20199;-52
2023/12/15 02:42:18;;;;;;;22.98;13.13;;;6.50;99.90;;;;;;5102462;28;20169;-51
2023/12/15 02:44:45;;;;;;;25.45;13.68;;;6.70;99.90;;;;;;5093425;28;20510;-52
2023/12/15 02:47:10;;;;;;;20.15;12.43;;;6.70;99.90;;;;;;5093384;28;20179;-53
2023/12/15 02:49:38;;;;;;;21.30;13.52;;;6.50;99.90;;;;;;5092882;28;20162;-53
2023/12/15 02:52:04;;;;;;;23.33;13.85;;;6.70;99.90;;;;;;5092563;28;20220;-53
2023/12/15 02:54:29;;;;;;;20.60;12.32;;;6.60;99.90;;;;;;5092647;28;20201;-53
2023/12/15 02:56:55;;;;;;;21.17;13.20;;;6.70;99.90;;;;;;5092721;28;20180;-53
2023/12/15 02:59:21;;;;;;;26.70;14.15;;;6.60;99.90;;;;;;5092645;28;20165;-52
2023/12/15 03:01:46;;;;;;;22.88;13.60;;;6.70;99.90;;;;;;5092783;28;20578;-52
2023/12/15 03:04:12;;;;;;;24.38;14.13;;;6.80;99.90;;;;;;5093223;28;20173;-52
2023/12/15 03:06:37;;;;;;;24.58;15.07;;;6.60;99.90;;;;;;5108527;28;20172;-53
2023/12/15 03:09:03;;;;;;;26.50;13.05;;;6.60;99.90;;;;;;5113092;28;20172;-53
2023/12/15 03:11:28;;;;;;;30.02;14.25;;;6.70;99.90;;;;;;5112990;28;20168;-52
2023/12/15 03:13:54;;;;;;;27.40;13.73;;;6.70;99.90;;;;;;5112682;28;20192;-53
2023/12/15 03:16:24;;;;;;;26.15;13.93;;;6.70;99.90;;;;;;5112674;28;20216;-53
2023/12/15 03:18:49;;;;;;;26.90;13.05;;;6.80;99.90;;;;;;5112862;28;20164;-52
2023/12/15 03:21:15;;;;;;;27.27;13.82;;;6.70;99.90;;;;;;5112579;28;20180;-52
2023/12/15 03:23:41;;;;;;;25.75;13.18;;;6.70;99.90;;;;;;5112940;28;20186;-52
2023/12/15 03:26:06;;;;;;;20.83;12.57;;;6.80;99.90;;;;;;5112493;28;20177;-53
2023/12/15 03:28:32;;;;;;;21.02;12.63;;;6.80;99.90;;;;;;5112458;28;20240;-53
2023/12/15 03:30:57;;;;;;;23.27;13.63;;;6.90;99.90;;;;;;5112400;28;20172;-52
2023/12/15 03:33:25;;;;;;;24.38;13.48;;;6.90;99.90;;;;;;5103928;28;20177;-53
2023/12/15 03:35:51;;;;;;;22.10;13.10;;;6.90;99.90;;;;;;5092133;28;20212;-52
2023/12/15 03:38:16;;;;;;;26.00;13.07;;;6.80;99.90;;;;;;5091850;28;20176;-52
2023/12/15 03:40:42;;;;;;;23.40;12.00;;;6.80;99.90;;;;;;5091445;28;20170;-53
2023/12/15 03:43:07;;;;;;;21.38;13.90;;;6.90;99.90;;;;;;5106712;28;20221;-52
2023/12/15 03:45:33;;;;;;;22.60;13.15;;;6.90;99.90;;;;;;5111844;28;20217;-53
2023/12/15 03:47:59;;;;;;;18.75;11.85;;;6.90;99.90;;;;;;5111736;28;20176;-53
2023/12/15 03:50:24;;;;;;;18.85;11.70;;;6.70;99.90;;;;;;5112101;28;20569;-53
2023/12/15 03:52:50;;;;;;;20.42;11.57;;;6.80;99.90;;;;;;5112082;28;20602;-52
2023/12/15 03:55:15;;;;;;;18.65;12.35;;;6.90;99.90;;;;;;5111879;28;20265;-52
2023/12/15 03:57:41;;;;;;;20.35;11.85;;;6.90;99.90;;;;;;5112400;28;20168;-52
2023/12/15 04:00:08;;;;;;;21.52;11.55;;;6.70;99.90;;;;;;5111874;28;20165;-53
2023/12/15 04:02:34;;;;;;;19.45;11.32;;;6.80;99.90;;;;;;5110729;28;20587;-53
2023/12/15 04:05:00;;;;;;;16.05;11.85;;;6.70;99.90;;;;;;5091563;28;20169;-53
2023/12/15 04:07:25;;;;;;;22.65;12.32;;;6.90;99.90;;;;;;5091405;28;20587;-53
2023/12/15 04:09:51;;;;;;;17.02;11.52;;;6.90;99.90;;;;;;5091498;28;20532;-53
2023/12/15 04:12:17;;;;;;;18.45;10.63;;;6.80;99.90;;;;;;5091646;28;20169;-53
2023/12/15 04:14:43;;;;;;;17.35;10.23;;;6.70;99.90;;;;;;5091834;28;20197;-53
2023/12/15 04:17:08;;;;;;;13.77;9.75;;;6.80;99.90;;;;;;5091425;28;20158;-54
2023/12/15 04:19:34;;;;;;;17.75;10.80;;;6.70;99.90;;;;;;5091396;28;20244;-53
2023/12/15 04:21:59;;;;;;;16.08;10.15;;;6.90;99.90;;;;;;5091255;28;20184;-53
2023/12/15 04:24:25;;;;;;;17.75;10.85;;;6.80;99.90;;;;;;5091326;28;20177;-53
2023/12/15 04:26:51;;;;;;;16.00;9.93;;;6.80;99.90;;;;;;5091232;28;20158;-54
2023/12/15 04:29:17;;;;;;;14.95;9.45;;;6.80;99.90;;;;;;5091337;28;20244;-53
2023/12/15 04:31:43;;;;;;;18.00;9.98;;;6.80;99.90;;;;;;5091783;28;20238;-53
2023/12/15 04:34:09;;;;;;;16.17;10.38;;;6.70;99.90;;;;;;5091612;28;20257;-54
2023/12/15 04:36:34;;;;;;;18.52;11.00;;;6.90;99.90;;;;;;5091281;28;20179;-54
2023/12/15 04:39:00;;;;;;;15.02;10.02;;;6.70;99.90;;;;;;5091140;28;20172;-53
2023/12/15 04:41:27;;;;;;;16.23;11.07;;;6.90;99.90;;;;;;5091235;28;20169;-53
2023/12/15 04:43:53;;;;;;;16.95;11.10;;;6.80;99.90;;;;;;5073038;28;20196;-53
2023/12/15 04:46:25;;;;;;;15.52;10.93;;;6.80;99.90;;;;;;5091192;28;20166;-53
2023/12/15 04:48:53;;;;;;;19.17;10.95;;;6.90;99.90;;;;;;5091299;28;20174;-53
2023/12/15 04:51:18;;;;;;;15.05;10.50;;;6.70;99.90;;;;;;5090891;28;20670;-52
2023/12/15 04:53:45;;;;;;;20.30;10.63;;;6.70;99.90;;;;;;5094903;28;20177;-52
2023/12/15 04:56:11;;;;;;;18.33;11.35;;;6.80;99.90;;;;;;5095679;28;20165;-53
2023/12/15 04:58:37;;;;;;;15.32;11.23;;;6.70;99.90;;;;;;5094829;28;20169;-52
2023/12/15 05:01:03;;;;;;;16.27;10.73;;;6.90;99.90;;;;;;5094843;28;20174;-53
2023/12/15 05:03:29;;;;;;;20.70;11.27;;;6.90;99.90;;;;;;5105771;28;20247;-53
2023/12/15 05:05:55;;;;;;;17.77;10.43;;;6.90;99.90;;;;;;5115201;28;20658;-53
2023/12/15 05:08:20;;;;;;;20.80;10.38;;;6.80;99.90;;;;;;5096865;28;20204;-53
2023/12/15 05:10:46;;;;;;;18.65;12.00;;;7.00;99.90;;;;;;5115067;28;20192;-53
2023/12/15 05:13:11;;;;;;;27.08;11.35;;;6.90;99.90;;;;;;5115660;28;20211;-52
2023/12/15 05:15:37;;;;;;;16.00;10.90;;;7.00;99.90;;;;;;5114872;28;20295;-52
2023/12/15 05:18:03;;;;;;;20.58;11.82;;;6.80;99.90;;;;;;5115077;28;20192;-52
2023/12/15 05:20:29;;;;;;;14.05;10.02;;;6.90;99.90;;;;;;5114905;28;20168;-53
2023/12/15 05:22:54;;;;;;;16.75;9.93;;;6.80;99.90;;;;;;5115017;28;20613;-53
2023/12/15 05:25:20;;;;;;;16.73;9.88;;;6.90;99.90;;;;;;5114702;28;20597;-53
2023/12/15 05:27:46;;;;;;;17.20;11.23;;;6.80;99.90;;;;;;5114772;28;20164;-52
2023/12/15 05:30:11;;;;;;;14.02;10.43;;;7.00;99.90;;;;;;5115077;28;20173;-52
2023/12/15 05:32:37;;;;;;;16.40;10.70;;;6.90;99.90;;;;;;5108177;28;20169;-53
2023/12/15 05:35:04;;;;;;;17.17;11.15;;;6.80;99.90;;;;;;5093697;28;20201;-52
2023/12/15 05:37:30;;;;;;;18.42;11.90;;;7.00;99.90;;;;;;5094140;28;20257;-53
2023/12/15 05:39:57;;;;;;;18.08;11.70;;;6.80;99.90;;;;;;5094320;28;20582;-53
2023/12/15 05:42:23;;;;;;;18.27;10.73;;;6.80;99.90;;;;;;5094101;28;20271;-53
2023/12/15 05:44:49;;;;;;;18.35;11.45;;;7.00;99.90;;;;;;5093994;28;20158;-53
2023/12/15 05:47:15;;;;;;;19.77;11.90;;;6.80;99.90;;;;;;5094066;28;20518;-52
2023/12/15 05:49:40;;;;;;;25.23;14.57;;;7.00;99.90;;;;;;5094568;28;20169;-54
2023/12/15 05:52:09;;;;;;;16.42;11.40;;;6.90;99.90;;;;;;5093649;28;20620;-54
2023/12/15 05:54:38;;;;;;;16.23;11.65;;;7.00;99.90;;;;;;5093721;28;20205;-54
2023/12/15 05:57:04;;;;;;;18.48;11.93;;;7.00;99.90;;;;;;5093954;28;20175;-53
2023/12/15 05:59:29;;;;;;;16.95;11.32;;;6.90;99.90;;;;;;5093648;28;20170;-54
2023/12/15 06:01:55;;;;;;;19.38;12.40;;;7.00;99.90;;;;;;5093910;28;20190;-54
2023/12/15 06:04:20;;;;;;;23.38;13.13;;;6.90;99.90;;;;;;5087964;28;20681;-53
2023/12/15 06:06:46;;;;;;;22.77;12.23;;;7.10;99.90;;;;;;5113394;28;20638;-54
2023/12/15 06:09:11;;;;;;;21.00;12.63;;;6.90;99.90;;;;;;5113747;28;20533;-54
2023/12/15 06:11:41;;;;;;;21.55;13.40;;;7.00;99.90;;;;;;5113344;28;20632;-54
2023/12/15 06:14:08;;;;;;;21.13;12.52;;;7.10;99.90;;;;;;5113008;28;20683;-52
2023/12/15 06:16:34;;;;;;;23.25;14.02;;;7.00;99.90;;;;;;5113304;28;20601;-52
2023/12/15 06:18:59;;;;;;;24.15;14.40;;;7.10;99.90;;;;;;5113438;28;20172;-52
2023/12/15 06:21:26;;;;;;;24.80;13.30;;;7.10;99.90;;;;;;5113062;28;20176;-52
2023/12/15 06:23:53;;;;;;;26.55;14.70;;;6.90;99.90;;;;;;5112906;28;20545;-52
2023/12/15 06:26:23;;;;;;;28.85;14.75;;;6.90;99.90;;;;;;5113132;28;20172;-52
2023/12/15 06:28:49;;;;;;;28.77;15.18;;;7.20;99.90;;;;;;5112846;28;20169;-52
2023/12/15 06:31:16;;;;;;;27.60;14.35;;;7.20;99.90;;;;;;5113096;28;20241;-52
2023/12/15 06:33:41;;;;;;;28.85;15.27;;;7.00;99.90;;;;;;5112652;28;20524;-52
2023/12/15 06:36:08;;;;;;;28.13;15.30;;;7.10;99.90;;;;;;5112879;28;20176;-52
2023/12/15 06:38:42;;;;;;;31.85;16.30;;;7.10;99.90;;;;;;5112783;28;20178;-52
2023/12/15 06:41:07;;;;;;;30.17;14.45;;;7.20;99.90;;;;;;5113372;28;20186;-52
2023/12/15 06:43:33;;;;;;;40.50;17.17;;;7.10;99.90;;;;;;5113301;28;20171;-54
2023/12/15 06:45:59;;;;;;;37.47;18.05;;;7.30;99.90;;;;;;5113230;28;20168;-54
2023/12/15 06:48:24;;;;;;;34.90;16.70;;;7.00;99.90;;;;;;5113486;28;20191;-54
2023/12/15 06:50:50;;;;;;;34.65;16.92;;;7.10;99.90;;;;;;5113049;28;20165;-54
2023/12/15 06:53:17;;;;;;;39.42;16.85;;;7.00;99.90;;;;;;5112862;28;20572;-53
2023/12/15 06:55:43;;;;;;;35.60;17.45;;;7.30;99.90;;;;;;5113523;28;20231;-55
2023/12/15 06:58:08;;;;;;;43.38;18.15;;;7.10;99.90;;;;;;5112995;28;20211;-54
2023/12/15 07:00:34;;;;;;;40.67;18.48;;;7.20;99.90;;;;;;5112760;28;20171;-53
2023/12/15 07:02:59;;;;;;;49.63;19.35;;;7.20;99.90;;;;;;5101441;28;20254;-54
2023/12/15 07:05:25;;;;;;;43.58;20.13;;;7.30;99.90;;;;;;5092527;28;20196;-54
2023/12/15 07:07:50;;;;;;;38.90;19.83;;;7.30;99.90;;;;;;5092427;28;20553;-54
2023/12/15 07:10:16;;;;;;;44.90;21.50;;;7.10;99.90;;;;;;5092611;28;20710;-54
2023/12/15 07:12:42;;;;;;;48.22;21.33;;;7.30;99.90;;;;;;5092676;28;20167;-54
2023/12/15 07:15:08;;;;;;;48.47;21.42;;;7.30;99.90;;;;;;5092136;28;20205;-54
2023/12/15 07:17:33;;;;;;;45.70;19.00;;;7.10;99.90;;;;;;5092513;28;20157;-54
2023/12/15 07:19:59;;;;;;;52.40;19.65;;;7.10;99.90;;;;;;5092168;28;20248;-55
2023/12/15 07:22:24;;;;;;;54.92;20.88;;;7.10;99.90;;;;;;5092185;28;20170;-55
2023/12/15 07:24:50;;;;;;;50.75;21.25;;;7.30;99.90;;;;;;5092078;28;20578;-55
2023/12/15 07:27:16;;;;;;;53.88;21.92;;;7.20;99.90;;;;;;5092148;28;20620;-55
2023/12/15 07:29:42;;;;;;;51.80;22.33;;;7.20;99.90;;;;;;5092475;28;20629;-54
2023/12/15 07:32:07;;;;;;;52.10;22.15;;;7.30;99.90;;;;;;5095625;28;20207;-53
2023/12/15 07:34:33;;;;;;;47.30;22.35;;;7.10;99.90;;;;;;5111974;28;20185;-54
2023/12/15 07:36:58;;;;;;;55.25;22.40;;;7.10;99.90;;;;;;5112529;28;20176;-54
2023/12/15 07:39:24;;;;;;;47.53;20.92;;;7.10;99.90;;;;;;5112557;28;20628;-54
2023/12/15 07:41:50;;;;;;;60.47;23.92;;;7.10;99.90;;;;;;5112137;28;20160;-54
2023/12/15 07:44:16;;;;;;;58.47;23.73;;;7.40;99.90;;;;;;5112371;28;20633;-54
2023/12/15 07:46:42;;;;;;;52.25;21.52;;;7.30;99.90;;;;;;5112578;28;20628;-54
2023/12/15 07:49:09;;;;;;;56.05;24.27;;;7.20;99.90;;;;;;5112003;28;20169;-55
2023/12/15 07:51:34;;;;;;;55.45;23.23;;;7.40;99.90;;;;;;5112081;28;20176;-55
2023/12/15 07:54:00;;;;;;;53.25;23.33;;;7.40;99.90;;;;;;5111932;28;20261;-55
2023/12/15 07:56:27;;;;;;;52.95;20.90;;;7.40;99.90;;;;;;5111802;28;20291;-54
2023/12/15 07:58:54;;;;;;;49.63;22.75;;;7.30;99.90;;;;;;5111883;28;20221;-54
2023/12/15 08:01:21;;;;;;;62.92;23.83;;;7.40;99.90;;;;;;5111828;28;20164;-54
2023/12/15 08:03:47;;;;;;;54.92;23.42;;;7.20;99.90;;;;;;5094233;28;20248;-54
2023/12/15 08:06:16;;;;;;;57.60;22.85;;;7.30;99.90;;;;;;5091885;28;20257;-54
2023/12/15 08:08:44;;;;;;;54.95;21.58;;;7.30;99.90;;;;;;5091920;28;20161;-54
2023/12/15 08:11:11;;;;;;;56.90;22.30;;;7.30;99.90;;;;;;5091791;28;20169;-52
2023/12/15 08:13:37;;;;;;;61.85;23.60;;;7.40;99.90;;;;;;5091641;28;20180;-51
2023/12/15 08:16:03;;;;;;;46.03;20.45;;;7.50;99.90;;;;;;5091262;28;20569;-52
2023/12/15 08:18:29;;;;;;;55.28;22.33;;;7.40;99.90;;;;;;5091551;28;20169;-52
2023/12/15 08:20:54;;;;;;;44.13;21.33;;;7.40;99.90;;;;;;5091319;28;20172;-52
2023/12/15 08:23:20;;;;;;;51.80;22.10;;;7.40;99.90;;;;;;5091234;28;20165;-52
2023/12/15 08:25:45;;;;;;;58.75;23.40;;;7.50;99.90;;;;;;5091587;28;20169;-52
2023/12/15 08:28:11;;;;;;;46.70;20.58;;;7.40;99.90;;;;;;5094383;28;20189;-52
2023/12/15 08:30:38;;;;;;;47.25;21.52;;;7.30;99.90;;;;;;5095314;28;20228;-51
2023/12/15 08:33:03;;;;;;;42.03;20.85;;;7.50;99.90;;;;;;5095614;28;20634;-52
2023/12/15 08:35:29;;;;;;;46.13;20.40;;;7.30;99.90;;;;;;5095222;28;20209;-52
2023/12/15 08:37:56;;;;;;;45.65;21.48;;;7.60;99.90;;;;;;5095568;28;20573;-52
2023/12/15 08:40:22;;;;;;;49.58;22.08;;;7.40;99.90;;;;;;5095529;28;20204;-53
2023/12/15 08:42:48;;;;;;;53.72;21.95;;;7.40;99.90;;;;;;5095359;28;20169;-54
2023/12/15 08:45:13;;;;;;;52.22;23.48;;;7.40;99.90;;;;;;5095546;28;20179;-54
2023/12/15 08:47:39;;;;;;;50.20;21.42;;;7.40;99.90;;;;;;5095591;28;20249;-55
2023/12/15 08:50:05;;;;;;;48.97;23.63;;;7.70;99.90;;;;;;5095118;28;20689;-54
2023/12/15 08:52:30;;;;;;;56.45;24.58;;;7.60;99.90;;;;;;5094816;28;20553;-52
2023/12/15 08:54:56;;;;;;;53.55;22.05;;;7.60;99.90;;;;;;5094936;28;20273;-53
2023/12/15 08:57:22;;;;;;;52.50;22.40;;;7.50;99.90;;;;;;5095079;28;20637;-54
2023/12/15 08:59:47;;;;;;;49.40;22.13;;;7.50;99.90;;;;;;5094996;28;20248;-54
2023/12/15 09:02:13;;;;;;;47.38;21.65;;;7.70;99.90;;;;;;5095690;28;20258;-53
2023/12/15 09:04:39;;;;;;;51.92;23.63;;;7.70;99.90;;;;;;5095191;28;20221;-53
2023/12/15 09:07:07;;;;;;;48.38;22.05;;;7.70;99.90;;;;;;5094791;28;20184;-54
2023/12/15 09:09:34;;;;;;;50.08;22.67;;;7.60;99.90;;;;;;5094640;28;20177;-55
2023/12/15 09:12:00;;;;;;;48.20;22.45;;;7.80;99.90;;;;;;5094575;28;20284;-54
2023/12/15 09:14:27;;;;;;;46.50;23.45;;;7.60;99.90;;;;;;5094570;28;20228;-54
2023/12/15 09:16:54;;;;;;;48.72;24.40;;;7.70;99.90;;;;;;5094534;28;20176;-55
2023/12/15 09:19:19;;;;;;;50.58;24.08;;;8.00;99.90;;;;;;5094799;28;20244;-54
2023/12/15 09:21:46;;;;;;;49.78;23.75;;;8.20;99.90;;;;;;5094705;28;20177;-54
2023/12/15 09:24:13;;;;;;;45.92;22.08;;;8.00;99.90;;;;;;5094870;28;20231;-55
2023/12/15 09:26:40;;;;;;;40.97;21.15;;;7.80;99.90;;;;;;5094709;28;20195;-55
2023/12/15 09:29:05;;;;;;;43.30;21.08;;;7.80;99.90;;;;;;5094555;28;20193;-54
2023/12/15 09:31:31;;;;;;;46.42;21.70;;;7.70;99.90;;;;;;5094590;28;20643;-53
2023/12/15 09:33:57;;;;;;;48.08;20.98;;;7.70;99.90;;;;;;5094147;28;20212;-54
2023/12/15 09:36:24;;;;;;;47.20;22.58;;;7.70;99.90;;;;;;5094454;28;20625;-52
2023/12/15 09:38:49;;;;;;;44.22;21.27;;;7.80;99.90;;;;;;5093134;28;20177;-52
2023/12/15 09:41:15;;;;;;;44.03;21.17;;;7.90;99.90;;;;;;5108670;28;20165;-52
2023/12/15 09:43:40;;;;;;;41.35;19.92;;;8.00;99.90;;;;;;5115378;28;20210;-52
2023/12/15 09:46:06;;;;;;;45.08;20.45;;;9.20;99.90;;;;;;5114071;28;20168;-52
2023/12/15 09:48:32;;;;;;;44.75;19.63;;;7.80;99.90;;;;;;5114018;28;20241;-52
2023/12/15 09:51:02;;;;;;;39.28;19.67;;;7.90;99.90;;;;;;5114437;28;20699;-53
2023/12/15 09:53:34;;;;;;;42.97;20.77;;;7.80;99.90;;;;;;5114070;28;20246;-50
2023/12/15 09:56:00;;;;;;;40.95;20.88;;;7.90;99.90;;;;;;5113586;28;20208;-50
2023/12/15 09:58:25;;;;;;;42.25;20.35;;;7.90;99.90;;;;;;5113939;28;20152;-52
2023/12/15 10:00:51;;;;;;;32.80;18.98;;;8.10;99.90;;;;;;5114411;28;20164;-52
2023/12/15 10:03:16;;;;;;;45.10;21.13;;;8.00;99.90;;;;;;5113760;28;20169;-53
2023/12/15 10:05:42;;;;;;;42.38;23.45;;;8.00;99.90;;;;;;5114114;28;20528;-52
2023/12/15 10:08:08;;;;;;;40.58;19.52;;;8.20;99.90;;;;;;5113978;28;20164;-52
2023/12/15 10:10:34;;;;;;;42.55;22.23;;;8.10;99.90;;;;;;5113894;28;20169;-52
2023/12/15 10:13:00;;;;;;;37.70;19.83;;;8.20;99.90;;;;;;5114094;28;20173;-52
2023/12/15 10:15:27;;;;;;;43.78;20.38;;;8.30;99.90;;;;;;5113796;28;20725;-52
2023/12/15 10:17:54;;;;;;;42.72;21.17;;;8.10;99.90;;;;;;5114040;28;20582;-52
2023/12/15 10:20:19;;;;;;;46.05;20.77;;;8.20;99.90;;;;;;5114018;28;20177;-52
2023/12/15 10:22:45;;;;;;;43.22;21.02;;;8.20;99.90;;;;;;5113681;28;20175;-52
2023/12/15 10:25:16;;;;;;;37.97;21.30;;;8.20;99.90;;;;;;5110958;28;20169;-52
2023/12/15 10:27:42;;;;;;;39.10;18.65;;;8.40;99.90;;;;;;5093772;28;20192;-53
2023/12/15 10:30:08;;;;;;;42.42;19.98;;;8.20;99.90;;;;;;5093061;28;20200;-52
2023/12/15 10:32:34;;;;;;;44.33;20.85;;;8.30;99.90;;;;;;5093363;28;20169;-54
2023/12/15 10:35:03;;;;;;;44.58;20.65;;;8.40;99.90;;;;;;5093056;28;20721;-54
2023/12/15 10:37:29;;;;;;;45.10;19.92;;;8.30;99.90;;;;;;5093018;28;20176;-54
2023/12/15 10:39:55;;;;;;;45.22;20.65;;;8.40;99.90;;;;;;5092862;28;20165;-54
2023/12/15 10:42:23;;;;;;;47.58;19.50;;;8.30;99.90;;;;;;5092860;28;20165;-54
2023/12/15 10:44:51;;;;;;;44.33;18.67;;;8.40;99.90;;;;;;5093182;28;20161;-53
2023/12/15 10:47:18;;;;;;;53.90;21.10;;;8.30;99.90;;;;;;5092938;28;20169;-52
2023/12/15 10:49:46;;;;;;;45.38;19.75;;;8.40;99.90;;;;;;5092464;28;20291;-52
2023/12/15 10:52:15;;;;;;;46.88;17.67;;;8.30;99.90;;;;;;5092784;28;20613;-53
2023/12/15 10:54:42;;;;;;;41.03;18.55;;;8.40;99.90;;;;;;5093224;28;20287;-54
2023/12/15 10:57:10;;;;;;;43.53;19.58;;;8.40;99.90;;;;;;5111516;28;20530;-54
2023/12/15 10:59:37;;;;;;;45.60;20.45;;;8.40;99.90;;;;;;5112965;28;20173;-53
2023/12/15 11:02:04;;;;;;;34.92;17.10;;;8.60;99.90;;;;;;5113053;28;20263;-55
2023/12/15 11:04:31;;;;;;;40.33;20.35;;;8.60;99.90;;;;;;5112888;28;20153;-54
2023/12/15 11:06:56;;;;;;;43.80;20.98;;;8.50;99.90;;;;;;5094500;28;20176;-54
2023/12/15 11:09:34;;;;;;;49.83;20.42;;;8.50;99.90;;;;;;5113086;28;20168;-54
2023/12/15 11:12:32;;;;;;;44.17;19.60;;;8.70;99.90;;;;;;5112807;28;20746;-54
2023/12/15 11:15:06;;;;;;;44.53;19.80;;;8.70;99.90;;;;;;5112877;28;20287;-54
2023/12/15 11:17:32;;;;;;;42.53;19.42;;;8.60;99.90;;;;;;5112683;28;20216;-54
2023/12/15 11:20:33;;;;;;;41.38;18.67;;;8.50;99.90;;;;;;5112645;28;20635;-54
2023/12/15 11:23:07;;;;;;;44.92;17.90;;;8.60;99.90;;;;;;5112446;28;20180;-53
2023/12/15 11:25:36;;;;;;;45.78;19.20;;;8.70;99.90;;;;;;5103943;28;20169;-54
2023/12/15 11:28:08;;;;;;;46.63;19.52;;;8.60;99.90;;;;;;5092385;28;20181;-54
2023/12/15 11:30:39;;;;;;;42.55;20.23;;;8.70;99.90;;;;;;5092031;28;20625;-54
2023/12/15 11:33:26;;;;;;;40.92;19.42;;;8.50;99.90;;;;;;5092123;28;20211;-54
2023/12/15 11:36:05;;;;;;;39.58;19.65;;;8.60;99.90;;;;;;5092139;28;20205;-54
2023/12/15 11:38:31;;;;;;;43.72;18.05;;;8.60;99.90;;;;;;5091925;28;20179;-54
2023/12/15 11:40:57;;;;;;;44.08;21.20;;;8.50;99.90;;;;;;5091911;28;20621;-54
2023/12/15 11:43:26;;;;;;;37.70;16.00;;;8.60;99.90;;;;;;5092113;28;20161;-55
2023/12/15 11:45:53;;;;;;;40.85;20.33;;;8.80;99.90;;;;;;5091857;28;20226;-54
2023/12/15 11:48:19;;;;;;;38.60;18.08;;;8.80;99.90;;;;;;5091782;28;20166;-54
2023/12/15 11:50:46;;;;;;;39.20;19.88;;;8.80;99.90;;;;;;5091719;28;20621;-53
2023/12/15 11:53:15;;;;;;;35.28;18.17;;;8.80;99.90;;;;;;5091975;28;20261;-54
2023/12/15 11:55:42;;;;;;;43.85;21.02;;;8.60;99.90;;;;;;5092334;28;20280;-55
2023/12/15 11:58:09;;;;;;;40.90;19.15;;;8.80;99.90;;;;;;5091502;28;20168;-55
2023/12/15 12:00:34;;;;;;;47.35;21.50;;;8.60;99.90;;;;;;5091777;28;20185;-54
2023/12/15 12:03:00;;;;;;;39.85;19.50;;;8.70;99.90;;;;;;5090783;28;20184;-53
2023/12/15 12:05:29;;;;;;;48.70;21.05;;;8.70;99.90;;;;;;5091612;28;20529;-58
2023/12/15 12:07:56;;;;;;;43.75;20.85;;;8.70;99.90;;;;;;5091537;28;20177;-53
2023/12/15 12:10:31;;;;;;;39.72;20.63;;;8.90;99.90;;;;;;5091403;28;20169;-55
2023/12/15 12:12:57;;;;;;;39.92;20.13;;;8.70;99.90;;;;;;5073372;28;20197;-53
2023/12/15 12:15:23;;;;;;;50.45;19.75;;;8.90;99.90;;;;;;5091310;28;20288;-52
2023/12/15 12:17:50;;;;;;;47.90;21.42;;;8.90;99.90;;;;;;5091538;28;20663;-54
2023/12/15 12:20:15;;;;;;;41.58;18.17;;;8.80;99.90;;;;;;5091380;28;20192;-53
2023/12/15 12:22:45;;;;;;;41.13;20.50;;;8.70;99.90;;;;;;5091697;28;20628;-55
2023/12/15 12:25:15;;;;;;;45.47;20.45;;;8.80;99.90;;;;;;5072815;28;20265;-57
2023/12/15 12:27:42;;;;;;;40.13;19.50;;;8.90;99.90;;;;;;5091678;28;20157;-57
2023/12/15 12:30:17;;;;;;;43.03;20.88;;;8.70;99.90;;;;;;5091201;28;20184;-57
2023/12/15 12:32:43;;;;;;;48.50;21.83;;;8.80;99.90;;;;;;5091929;28;20165;-57
2023/12/15 12:35:11;;;;;;;44.20;19.80;;;8.80;99.90;;;;;;5091201;28;20209;-58